createdAt,value
2022-12-11T00:02:49.432Z,100.50
2022-12-11T00:07:51.021Z,110.57
2022-12-11T00:12:52.757Z,100.70
2022-12-11T00:17:54.216Z,107.32
2022-12-11T00:22:56.229Z,97.03
2022-12-11T00:27:57.829Z,91.65
2022-12-11T00:33:00.061Z,99.22
2022-12-11T00:38:02.003Z,89.18
2022-12-11T00:43:04.170Z,92.28
2022-12-11T00:48:05.963Z,103.95
2022-12-11T00:53:07.880Z,100.35
2022-12-11T00:58:11.558Z,88.10
2022-12-11T01:03:14.906Z,101.00
2022-12-11T01:08:16.453Z,98.32
2022-12-11T01:13:17.941Z,86.68
2022-12-11T01:18:19.379Z,90.93
2022-12-11T01:23:20.841Z,96.40
2022-12-11T01:28:22.327Z,103.95
2022-12-11T01:33:23.760Z,113.13
2022-12-11T01:38:25.212Z,101.68
2022-12-11T01:43:26.626Z,102.07
2022-12-11T01:48:31.368Z,104.05
2022-12-11T01:53:43.434Z,93.28
2022-12-11T01:58:52.264Z,110.68
2022-12-11T02:03:55.598Z,117.20
2022-12-11T02:08:57.140Z,145.88
2022-12-11T02:14:16.174Z,127.88
2022-12-11T02:19:29.749Z,147.77
2022-12-11T02:25:16.326Z,143.32
2022-12-11T02:30:17.862Z,138.30
2022-12-11T02:35:24.608Z,169.88
2022-12-11T02:40:30.051Z,156.40
2022-12-11T02:45:33.869Z,161.35
2022-12-11T02:50:39.178Z,122.90
2022-12-11T02:55:42.600Z,111.10
2022-12-11T03:00:45.433Z,132.50
2022-12-11T03:05:47.558Z,150.55
2022-12-11T03:10:49.069Z,109.70
2022-12-11T03:16:08.256Z,129.75
2022-12-11T03:21:19.886Z,120.60
2022-12-11T03:26:23.820Z,119.00
2022-12-11T03:31:43.614Z,130.73
2022-12-11T03:36:47.536Z,125.18
2022-12-11T03:41:51.122Z,111.43
2022-12-11T03:46:54.985Z,114.05
2022-12-11T03:51:58.255Z,109.43
2022-12-11T03:57:02.754Z,122.55
2022-12-11T04:02:11.114Z,109.05
2022-12-11T04:07:12.665Z,97.43
2022-12-11T04:12:14.153Z,104.88
2022-12-11T04:17:36.129Z,116.45
2022-12-11T04:22:56.224Z,93.55
2022-12-11T04:27:57.699Z,70.22
2022-12-11T04:32:59.116Z,61.95
2022-12-11T04:38:01.201Z,35.40
2022-12-11T04:43:02.718Z,52.28
2022-12-11T04:48:04.385Z,53.63
2022-12-11T04:53:05.815Z,55.78
2022-12-11T04:58:07.218Z,45.25
2022-12-11T05:03:09.131Z,59.50
2022-12-11T05:08:10.686Z,57.20
2022-12-11T05:13:12.286Z,49.92
2022-12-11T05:18:13.663Z,50.30
2022-12-11T05:23:15.038Z,36.50
2022-12-11T05:28:16.416Z,50.42
2022-12-11T05:33:17.888Z,37.67
2022-12-11T05:38:19.930Z,50.38
2022-12-11T05:43:21.397Z,68.32
2022-12-11T05:48:23.131Z,60.10
2022-12-11T05:53:24.777Z,62.03
2022-12-11T05:58:26.252Z,56.00
2022-12-11T06:03:28.092Z,53.88
2022-12-11T06:08:29.880Z,52.22
2022-12-11T06:13:31.297Z,56.40
2022-12-11T06:18:36.991Z,52.03
2022-12-11T06:23:38.430Z,39.72
2022-12-11T06:28:40.049Z,37.75
2022-12-11T06:33:41.862Z,41.45
2022-12-11T06:38:43.900Z,47.30
2022-12-11T06:43:45.424Z,40.70
2022-12-11T06:48:48.238Z,41.80
2022-12-11T06:53:55.314Z,38.17
2022-12-11T07:04:00.093Z,27.17
2022-12-11T07:09:04.306Z,30.48
2022-12-11T07:14:05.829Z,31.65
2022-12-11T07:19:08.725Z,31.20
2022-12-11T07:24:10.334Z,29.67
2022-12-11T07:29:11.868Z,37.53
2022-12-11T07:34:14.216Z,31.38
2022-12-11T07:39:18.494Z,26.95
2022-12-11T07:44:19.962Z,28.75
2022-12-11T07:49:21.516Z,30.75
2022-12-11T07:54:23.051Z,33.47
2022-12-11T07:59:26.854Z,21.02
2022-12-11T08:04:29.944Z,27.90
2022-12-11T08:09:31.418Z,22.90
2022-12-11T08:14:32.834Z,26.00
2022-12-11T08:19:34.353Z,20.70
2022-12-11T08:24:37.284Z,28.23
2022-12-11T08:29:39.027Z,23.27
2022-12-11T08:34:40.516Z,20.17
2022-12-11T08:39:43.414Z,23.77
2022-12-11T08:44:44.900Z,25.50
2022-12-11T08:49:46.837Z,26.88
2022-12-11T08:54:48.350Z,26.90
2022-12-11T08:59:50.435Z,24.67
2022-12-11T09:04:51.901Z,22.60
2022-12-11T09:09:56.388Z,26.40
2022-12-11T09:14:57.844Z,36.72
2022-12-11T09:19:59.367Z,29.65
2022-12-11T09:25:02.034Z,30.52
2022-12-11T09:30:08.072Z,26.70
2022-12-11T09:35:13.847Z,35.03
2022-12-11T09:40:17.064Z,29.25
2022-12-11T09:45:19.003Z,28.60
2022-12-11T09:50:26.240Z,28.17
2022-12-11T09:55:41.435Z,27.70
2022-12-11T10:01:09.752Z,24.52
2022-12-11T10:06:45.491Z,25.70
2022-12-11T10:12:04.413Z,28.02
2022-12-11T10:36:18.888Z,25.60
2022-12-11T10:41:24.660Z,26.67
2022-12-11T10:46:29.023Z,28.52
2022-12-11T10:51:30.580Z,31.00
2022-12-11T10:56:34.140Z,28.02
2022-12-11T11:01:35.948Z,32.00
2022-12-11T11:06:37.652Z,25.73
2022-12-11T11:11:40.363Z,28.75
2022-12-11T11:16:45.892Z,27.50
2022-12-11T11:21:53.871Z,33.58
2022-12-11T11:27:12.883Z,33.35
2022-12-11T11:32:28.799Z,31.63
2022-12-11T11:37:34.460Z,28.65
2022-12-11T11:42:46.908Z,31.58
2022-12-11T11:48:09.460Z,36.05
2022-12-11T11:53:30.668Z,27.00
2022-12-11T11:58:45.236Z,27.85
2022-12-11T12:03:52.241Z,32.33
2022-12-11T12:20:17.141Z,30.85
2022-12-11T12:25:42.766Z,31.15
2022-12-11T12:31:06.115Z,26.27
2022-12-11T12:36:26.855Z,33.38
2022-12-11T12:41:56.729Z,30.13
2022-12-11T12:47:12.281Z,27.65
2022-12-11T12:52:24.545Z,24.45
2022-12-11T12:57:26.280Z,28.05
2022-12-11T13:02:29.951Z,29.40
2022-12-11T13:07:33.200Z,30.50
2022-12-11T13:12:46.438Z,29.88
2022-12-11T13:17:51.456Z,30.83
2022-12-11T13:23:12.871Z,28.48
2022-12-11T13:28:38.503Z,25.67
2022-12-11T13:33:47.411Z,31.77
2022-12-11T13:38:53.606Z,36.38
2022-12-11T13:43:57.880Z,32.23
2022-12-11T13:49:02.249Z,32.28
2022-12-11T13:54:17.265Z,27.95
2022-12-11T13:59:29.320Z,31.40
2022-12-11T14:04:33.519Z,26.30
2022-12-11T14:09:43.538Z,33.22
2022-12-11T14:14:49.864Z,29.48
2022-12-11T14:19:52.440Z,37.40
2022-12-11T14:24:56.802Z,39.35
2022-12-11T14:30:01.207Z,25.73
2022-12-11T14:35:06.666Z,28.38
2022-12-11T14:40:18.542Z,31.35
2022-12-11T14:45:32.705Z,27.88
2022-12-11T14:50:40.653Z,34.22
2022-12-11T14:55:42.596Z,35.67
2022-12-11T15:00:56.074Z,38.80
2022-12-11T15:05:58.632Z,25.13
2022-12-11T15:11:08.477Z,31.85
2022-12-11T15:16:14.440Z,26.85
2022-12-11T15:21:16.706Z,24.48
2022-12-11T15:26:21.873Z,28.30
2022-12-11T15:31:30.051Z,29.35
2022-12-11T15:36:34.671Z,30.50
2022-12-11T15:41:39.351Z,29.98
2022-12-11T15:46:41.310Z,32.13
2022-12-11T15:51:43.511Z,36.75
2022-12-11T15:56:45.177Z,31.00
2022-12-11T16:01:48.050Z,31.40
2022-12-11T16:06:50.554Z,33.50
2022-12-11T16:11:51.994Z,33.80
2022-12-11T16:16:53.539Z,41.22
2022-12-11T16:21:57.166Z,34.30
2022-12-11T16:26:58.802Z,35.65
2022-12-11T16:32:00.878Z,31.20
2022-12-11T16:37:03.493Z,45.60
2022-12-11T16:42:05.917Z,36.78
2022-12-11T16:47:18.130Z,38.88
2022-12-11T16:52:22.264Z,31.65
2022-12-11T16:57:24.845Z,34.10
2022-12-11T17:02:26.344Z,39.17
2022-12-11T17:07:27.936Z,29.98
2022-12-11T17:12:29.913Z,31.13
2022-12-11T17:17:31.502Z,30.15
2022-12-11T17:22:32.916Z,34.15
2022-12-11T17:27:34.449Z,28.38
2022-12-11T17:32:35.903Z,37.55
2022-12-11T17:37:37.679Z,33.72
2022-12-11T17:42:39.220Z,27.83
2022-12-11T17:47:41.862Z,28.88
2022-12-11T17:52:44.504Z,27.55
2022-12-11T17:57:46.092Z,32.25
2022-12-11T18:02:47.606Z,27.02
2022-12-11T18:07:52.901Z,29.67
2022-12-11T18:12:59.401Z,26.63
2022-12-11T18:18:01.127Z,27.15
2022-12-11T18:23:03.317Z,27.08
2022-12-11T18:28:05.097Z,32.15
2022-12-11T18:33:06.855Z,25.73
2022-12-11T18:38:09.997Z,25.83
2022-12-11T18:43:11.739Z,24.75
2022-12-11T18:48:14.645Z,25.85
2022-12-11T18:53:17.454Z,25.65
2022-12-11T18:58:20.637Z,21.05
2022-12-11T19:03:22.106Z,23.40
2022-12-11T19:08:23.738Z,25.05
2022-12-11T19:13:25.243Z,22.73
2022-12-11T19:18:26.936Z,25.20
2022-12-11T19:23:28.443Z,23.27
2022-12-11T19:28:30.330Z,25.42
2022-12-11T19:33:31.914Z,25.10
2022-12-11T19:38:33.575Z,24.67
2022-12-11T19:43:38.016Z,29.10
2022-12-11T19:48:41.489Z,22.17
2022-12-11T19:53:44.984Z,24.25
2022-12-11T19:58:48.385Z,25.05
2022-12-11T20:03:49.831Z,20.80
2022-12-11T20:08:51.410Z,31.80
2022-12-11T20:13:55.527Z,21.35
2022-12-11T20:18:57.624Z,28.17
2022-12-11T20:23:59.977Z,22.88
2022-12-11T20:29:05.235Z,23.02
2022-12-11T20:34:08.001Z,23.35
2022-12-11T20:39:10.470Z,25.40
2022-12-11T20:44:12.984Z,21.30
2022-12-11T20:49:14.533Z,21.70
2022-12-11T20:54:16.035Z,29.52
2022-12-11T20:59:18.866Z,24.98
2022-12-11T21:04:20.621Z,35.05
2022-12-11T21:09:25.698Z,33.45
2022-12-11T21:14:27.887Z,26.50
2022-12-11T21:19:29.915Z,26.23
2022-12-11T21:24:31.480Z,26.95
2022-12-11T21:29:32.973Z,31.77
2022-12-11T21:34:34.654Z,26.40
2022-12-11T21:39:39.294Z,29.27
2022-12-11T21:50:02.509Z,28.40
2022-12-11T21:55:04.947Z,24.42
2022-12-11T22:00:07.251Z,29.98
2022-12-11T22:05:09.344Z,26.55
2022-12-11T22:10:11.231Z,22.50
2022-12-11T22:15:13.040Z,22.65
2022-12-11T22:20:14.701Z,23.25
2022-12-11T22:25:16.386Z,27.98
2022-12-11T22:30:17.879Z,26.20
2022-12-11T22:35:22.891Z,28.88
2022-12-11T22:40:27.496Z,26.17
2022-12-11T22:45:28.987Z,29.17
2022-12-11T22:50:30.909Z,28.10
2022-12-11T22:55:32.656Z,31.15
2022-12-11T23:00:34.161Z,29.02
2022-12-11T23:05:35.774Z,29.60
2022-12-11T23:10:40.479Z,28.45
2022-12-11T23:15:41.995Z,30.33
2022-12-11T23:20:43.434Z,35.95
2022-12-11T23:25:44.823Z,29.33
2022-12-11T23:30:46.281Z,31.98
2022-12-11T23:35:47.780Z,27.45
2022-12-11T23:40:49.291Z,28.63
2022-12-11T23:45:50.803Z,33.38
2022-12-11T23:50:52.572Z,29.80
2022-12-11T23:55:54.336Z,25.90
